KG4QXL-2 Weather Reports


time (UTC)temp
F
wind
direction
speed
knots
gust
knots
rain 1hr
in
rain 24hr
in
rain mn
in
humidity
%
barometer
mb
20260507140519 52 0.0 1.7 0.00 0.00 0.00 93 1007.4
20260507135518 52 0.0 0.0 0.00 0.00 0.00 95 1007.5
20260507134559 52 0.0 0.0 0.00 0.00 0.00 96 1007.5
20260507133519 52 0.0 0.0 0.00 0.00 0.00 96 1007.6
20260507132538 52 0.0 0.0 0.00 0.00 0.00 95 1007.6
20260507131520 52 0.0 0.0 0.00 0.00 0.00 95 1007.3
20260507130519 52 0.0 0.0 0.00 0.00 0.00 95 1007.6
20260507125539 52 0.0 0.0 0.00 0.00 0.00 94 1007.2
20260507124539 52 0.0 0.0 0.00 0.00 0.00 96 1007.4
20260507123519 52 0.0 0.0 0.00 0.00 0.00 96 1007.4
20260507122520 52 0.0 0.0 0.00 0.00 0.00 96 1007.2
20260507121519 52 0.0 0.0 0.00 0.00 0.00 97 1007.0
20260507120519 52 0.0 0.0 0.00 0.00 0.00 98 1007.2
20260507115519 53 0.0 0.0 0.00 0.00 0.00 98 1007.4
20260507114620 53 0.0 0.0 0.00 0.00 0.00 98 1007.2
20260507113517 53 0.0 0.0 0.00 0.00 0.00 99 1006.7
20260507112516 53 0.0 0.0 0.00 0.00 0.00 98 1006.8
20260507111517 52 0.0 0.0 0.00 0.00 0.00 98 1006.9
20260507110517 53 0.0 0.0 0.00 0.00 0.00 99 1006.8
20260507105537 53 0.0 0.0 0.00 0.00 0.00 99 1006.7
20260507104537 54 0.0 0.0 0.00 0.00 0.00 99 1006.6
20260507103536 54 0.0 0.0 0.00 0.00 0.00 99 1006.5
20260507102517 54 0.0 0.0 0.00 0.00 0.00 99 1006.4
20260507101517 54 0.0 0.0 0.00 0.00 0.00 99 1006.4
20260507100517 54 0.0 0.0 0.00 0.00 0.00 99 1006.5
20260507095516 54 0.0 0.0 0.00 0.00 0.00 99 1006.3
20260507094518 54 0.0 0.0 0.00 0.00 0.00 99 1006.4
20260507093517 54 0.0 0.0 0.00 0.00 0.00 99 1006.4
20260507092517 54 0.0 0.0 0.00 0.00 0.00 99 1006.3
20260507091516 54 0.0 0.0 0.00 0.00 0.00 98 1005.9
20260507090517 54 0.0 0.0 0.00 0.00 0.00 98 1006.1
20260507085517 54 0.0 0.0 0.00 0.00 0.00 98 1006.1
20260507084517 54 0.0 0.0 0.00 0.00 0.00 98 1006.1
20260507083517 53 0.0 0.0 0.00 0.00 0.00 98 1005.9
20260507082518 54 0.0 0.0 0.00 0.00 0.00 98 1005.9
20260507081517 54 0.0 0.0 0.00 0.00 0.00 98 1005.9
20260507080517 54 0.0 0.0 0.00 0.00 0.00 98 1005.6
20260507075536 54 0.0 0.0 0.00 0.00 0.00 98 1005.3
20260507074517 54 0.0 0.0 0.00 0.00 0.00 98 1005.5
20260507073517 54 0.0 0.0 0.00 0.00 0.00 98 1005.4
20260507072516 54 0.0 0.0 0.00 0.00 0.00 98 1005.0
20260507071517 54 0.0 0.0 0.00 0.00 0.00 98 1005.1
20260507070516 54 0.0 0.0 0.00 0.00 0.00 98 1005.1
20260507065517 55 0.0 0.0 0.00 0.00 0.00 98 1005.2
20260507064517 55 0.0 0.0 0.00 0.00 0.00 98 1005.2
20260507063517 55 0.0 0.9 0.00 0.00 0.00 98 1005.1
20260507062517 55 0.0 0.9 0.00 0.00 0.00 98 1005.4
20260507061517 56 275 0.0 0.9 0.00 0.00 0.00 98 1005.2
20260507060518 56 0.0 0.0 0.00 0.00 0.00 98 1005.0
20260507055517 57 0.0 0.9 0.00 0.00 0.00 98 1004.7
20260507054518 57 0.0 0.0 0.00 0.00 0.00 98 1004.8
20260507053517 57 0.0 0.0 0.00 0.00 0.00 98 1005.3
20260507052517 57 280 0.0 0.9 0.00 0.00 0.00 98 1005.1
20260507051517 57 0.0 0.0 0.00 0.00 0.00 98 1005.1
20260507050517 57 0.0 0.0 0.00 0.00 0.00 98 1005.3
20260507045517 57 0.0 0.0 0.00 0.00 0.00 97 1004.9
20260507044517 58 0.0 0.0 0.00 0.00 0.00 97 1005.2
20260507043518 58 0.0 0.0 0.00 0.00 0.00 97 1005.4
20260507042517 59 259 0.0 1.7 0.00 0.00 0.00 96 1005.1
20260507041537 61 246 0.0 0.9 0.00 0.00 0.00 90 1005.2
20260507040517 62 301 0.0 0.9 0.00 0.00 0.00 84 1005.2
20260507035537 63 275 0.0 1.7 0.00 0.00 0.00 80 1005.0
20260507034517 63 282 0.0 1.7 0.00 0.00 0.00 82 1004.7
20260507033517 64 310 0.0 1.7 0.00 0.00 0.00 83 1004.9
20260507032516 65 279 0.0 0.9 0.00 0.00 0.00 87 1004.8
20260507031518 65 308 0.0 1.7 0.00 0.00 0.00 88 1004.5
20260507030517 65 285 0.0 0.9 0.00 0.00 0.00 91 1004.0
20260507025537 65 0.0 0.0 0.00 0.00 0.00 90 1004.0
20260507024517 65 0.0 0.9 0.00 0.00 0.00 90 1004.2
20260507023517 65 260 0.0 0.9 0.00 0.00 0.00 90 1003.9
20260507022516 65 0.0 0.9 0.00 0.00 0.00 92 1003.9
20260507021517 65 259 0.0 0.9 0.00 0.00 0.00 94 1003.6
20260507020516 65 331 0.0 1.7 0.00 0.00 0.00 96 1003.3
20260507015517 66 0.0 0.0 0.00 0.00 0.00 96 1004.0
20260507014516 66 0.0 0.0 0.00 0.00 0.00 95 1003.6
20260507013517 66 0.0 0.0 0.00 0.00 0.00 95 1003.6
20260507012517 66 0.0 0.0 0.00 0.00 0.00 95 1003.6
20260507011517 66 0.0 0.0 0.00 0.00 0.00 94 1003.8
20260507010517 66 0.0 0.0 0.00 0.00 0.00 94 1004.0
20260507005517 66 0.0 0.0 0.00 0.00 0.00 94 1003.9
20260507004517 66 0.0 0.0 0.00 0.00 0.00 94 1003.7
20260507003516 66 0.0 0.0 0.00 0.00 0.00 93 1003.7
20260507002517 67 0.0 0.0 0.00 0.00 0.00 93 1003.6
20260507001537 67 0.0 0.0 0.00 0.00 0.00 92 1003.6
20260507000517 67 0.0 0.9 0.00 0.00 0.00 92 1003.3
20260506235517 67 0.0 0.0 0.00 0.00 0.00 92 1003.2
20260506234537 67 0.0 0.0 0.00 0.00 0.00 91 1003.1
20260506233517 67 0.0 0.0 0.00 0.00 0.00 91 1002.8
20260506232517 67 0.0 0.0 0.00 0.00 0.00 90 1002.9
20260506231516 67 0.0 0.0 0.00 0.00 0.00 89 1002.8
20260506230517 68 0.0 0.0 0.00 0.00 0.00 89 1002.8
20260506225516 68 0.0 0.0 0.00 0.00 0.00 88 1002.8
20260506224517 68 0.0 0.0 0.00 0.00 0.00 88 1002.7
20260506223517 68 248 0.0 0.9 0.00 0.00 0.00 87 1002.7
20260506222517 68 0.0 0.0 0.00 0.00 0.00 86 1002.8
20260506221517 68 0.0 0.0 0.00 0.00 0.00 85 1002.9
20260506220517 68 0.0 0.0 0.00 0.00 0.00 85 1003.0
20260506215517 68 265 0.0 0.9 0.00 0.00 0.00 86 1002.9
20260506214517 68 0.0 0.0 0.00 0.00 0.00 88 1002.8
20260506213517 68 0.0 0.9 0.00 0.00 0.00 86 1002.9
20260506212518 68 0.0 0.9 0.00 0.00 0.00 85 1002.8
20260506211536 68 272 0.0 0.9 0.00 0.00 0.00 84 1002.9
20260506210537 68 246 0.0 0.9 0.00 0.00 0.00 86 1002.7
20260506205536 68 256 0.0 0.9 0.00 0.00 0.00 85 1002.7
20260506204516 68 245 0.0 0.9 0.00 0.00 0.00 85 1002.5
20260506203517 68 258 0.9 2.6 0.00 0.00 0.00 85 1002.5
20260506202537 67 258 0.0 0.9 0.00 0.00 0.00 86 1002.5
20260506201517 67 285 0.0 0.9 0.00 0.00 0.00 87 1002.5
20260506200516 67 285 0.0 0.9 0.00 0.00 0.00 87 1002.7
20260506195537 67 285 0.0 0.9 0.00 0.00 0.00 87 1002.8
20260506194517 67 250 0.0 0.9 0.00 0.00 0.00 88 1002.7
20260506193517 66 272 0.0 0.9 0.00 0.00 0.00 88 1002.9
20260506192517 65 257 0.0 0.9 0.00 0.00 0.00 90 1003.0
20260506191517 65 295 0.0 1.7 0.00 0.00 0.00 91 1003.1
20260506190517 64 257 0.0 0.9 0.00 0.00 0.00 92 1003.4
20260506185516 64 0.0 0.9 0.00 0.00 0.00 93 1003.5
20260506184517 64 260 0.0 0.9 0.00 0.00 0.00 93 1003.5
20260506183517 64 0.0 0.9 0.00 0.00 0.00 94 1003.6
20260506182517 64 280 0.0 0.9 0.00 0.00 0.00 95 1003.4
20260506181517 63 0.0 0.0 0.00 0.00 0.00 95 1003.6
20260506180516 63 0.0 0.0 0.00 0.00 0.00 94 1003.7
20260506175517 64 268 0.9 1.7 0.00 0.00 0.00 92 1003.7
20260506174517 63 264 0.9 1.7 0.00 0.00 0.00 94 1003.8
20260506173517 63 0.0 0.0 0.00 0.00 0.00 94 1003.9
20260506172517 63 0.0 0.0 0.00 0.00 0.00 94 1003.9
20260506171516 62 0.0 0.0 0.00 0.00 0.00 94 1003.9
20260506170516 62 0.0 0.0 0.00 0.00 0.00 95 1004.0
20260506165517 62 0.0 0.0 0.00 0.00 0.00 96 1004.1
20260506164517 62 0.0 0.0 0.00 0.00 0.00 97 1004.1
20260506163517 61 0.0 0.0 0.00 0.00 0.00 98 1004.3
20260506162517 61 0.0 0.0 0.00 0.00 0.00 98 1004.2
20260506161516 61 0.0 0.0 0.00 0.00 0.00 98 1004.3
20260506160517 61 0.0 0.0 0.00 0.00 0.00 98 1004.4
20260506155517 61 0.0 0.0 0.00 0.00 0.00 98 1004.4
20260506154517 61 0.0 0.0 0.00 0.00 0.00 98 1004.7
20260506153537 61 0.0 0.0 0.00 0.00 0.00 98 1004.5
20260506152517 61 0.0 0.0 0.00 0.00 0.00 98 1004.8
20260506151517 60 0.0 0.0 0.00 0.00 0.00 98 1004.6
20260506150536 60 0.0 0.0 0.00 0.00 0.00 98 1004.8
20260506145517 60 0.0 0.0 0.00 0.00 0.00 98 1005.0
20260506144517 60 0.0 0.0 0.00 0.00 0.00 98 1005.3
20260506143517 60 0.0 0.0 0.00 0.00 0.00 98 1005.2
20260506142517 60 0.0 0.0 0.00 0.00 0.00 98 1005.1
20260506141517 60 0.0 0.0 0.00 0.00 0.00 98 1005.1